Aviation Digital Data Service (ADDS)

Output produced by METARs form (1738 UTC 27 May 2017)
found at http://www.aviationweather.gov/adds/metars/
 
KBWI 271654Z 19004KT 10SM FEW060 SCT090 BKN120 BKN250 22/14 A2990 RMK AO2 SLP125 T02220139
KBWI 271730Z 2718/2824 08004KT P6SM BKN060 
     FM281000 VRB03KT P6SM BKN025 
     FM281600 10006KT P6SM BKN035
       
KMTN 271645Z 14005KT 10SM BKN090 22/17 A2993
KMTN 271730Z 2718/2818 06004KT P6SM BKN045 
     FM281400 09004KT P6SM BKN030 
     FM281500 10005KT P6SM BKN035
       
KCGE 271730Z AUTO VRB05G11KT 10SM FEW120 25/15 A2989 RMK A01
KADW 271731Z AUTO 06005KT 10SM -RA BKN080 22/15 A2989 RMK AO2 RAB31 SLP127
TAF KADW 271700Z 2717/2823 19009KT 9999 BKN030 OVC050 QNH2984INS 
     BECMG 2719/2720 12009KT 6000 -SHRA SCT010 OVC020 QNH2982INS 
     TEMPO 2721/2723 28010G20KT 4800 -TSRA OVC050CB 
     BECMG 2803/2804 04006KT 4800 BR BKN035 OVC050 QNH2986INS 
     BECMG 2811/2812 09006KT 9999 NSW FEW015 OVC025 QNH2984INS TX25/2719Z TN14/2810Z
       
KCBE 271733Z AUTO 00000KT 10SM BKN023 17/15 A2995 RMK AO1
KFME 271733Z AUTO 00000KT 10SM SCT050 BKN090 20/14 A2993 RMK AO1
KFDK 271647Z 22006KT 10SM OVC044 22/17 A2994
KGAI 271656Z AUTO 00000KT 10SM FEW045 OVC080 21/15 A2992 RMK AO2 SLP160 T02060150
KHGR 271732Z 00000KT 2SM -RA BR SCT006 BKN037 OVC060 17/16 A2992 RMK AO2 P0015 T01670156
K2W6 271733Z AUTO 05003KT 10SM SCT110 23/15 A2990 RMK AO1
K2G4 271730Z AUTO 25003KT 7SM 15/15 A2995 RMK AO1
KOXB 271653Z AUTO 15005KT 10SM SCT100 21/14 A2993 RMK AO2 SLP134 T02060139
KSBY 271654Z 23006KT 10SM FEW100 26/16 A2989 RMK AO2 SLP124 T02560156
KSBY 271120Z 2712/2812 17003KT P6SM BKN070 
     FM271400 20005KT P6SM SCT060 
     FM272000 16007KT P6SM BKN060 
     FM280400 05005KT P6SM BKN040
       
KW29 271730Z AUTO 33003KT 10SM BKN100 22/14 A2991 RMK AO2
KDMW 271730Z AUTO 00000KT 10SM RA BKN036 OVC048 18/16 A2994 RMK AO2 P0005